sensor_id;sensor_type;location;lat;lon;timestamp;P1;durP1;ratioP1;P2;durP2;ratioP2
46006;SDS011;31738;50.188;8.524;2023-02-22T00:02:18;35.90;;;14.93;;
46006;SDS011;31738;50.188;8.524;2023-02-22T00:04:54;41.60;;;15.25;;
46006;SDS011;31738;50.188;8.524;2023-02-22T00:07:30;29.55;;;12.57;;
46006;SDS011;31738;50.188;8.524;2023-02-22T00:10:23;23.85;;;10.55;;
46006;SDS011;31738;50.188;8.524;2023-02-22T00:12:50;35.95;;;15.23;;
46006;SDS011;31738;50.188;8.524;2023-02-22T00:15:27;46.38;;;17.80;;
46006;SDS011;31738;50.188;8.524;2023-02-22T00:21:35;55.92;;;21.67;;
46006;SDS011;31738;50.188;8.524;2023-02-22T00:24:01;49.88;;;20.77;;
46006;SDS011;31738;50.188;8.524;2023-02-22T00:26:54;50.10;;;19.83;;
46006;SDS011;31738;50.188;8.524;2023-02-22T00:29:20;47.15;;;19.65;;
46006;SDS011;31738;50.188;8.524;2023-02-22T00:31:52;48.38;;;19.63;;
46006;SDS011;31738;50.188;8.524;2023-02-22T00:34:31;45.67;;;18.23;;
46006;SDS011;31738;50.188;8.524;2023-02-22T00:37:19;57.50;;;21.88;;
46006;SDS011;31738;50.188;8.524;2023-02-22T00:39:59;55.80;;;21.83;;
46006;SDS011;31738;50.188;8.524;2023-02-22T00:42:32;49.75;;;20.25;;
46006;SDS011;31738;50.188;8.524;2023-02-22T00:44:58;52.22;;;20.20;;
46006;SDS011;31738;50.188;8.524;2023-02-22T00:47:27;47.47;;;20.58;;
46006;SDS011;31738;50.188;8.524;2023-02-22T00:50:11;47.87;;;19.87;;
46006;SDS011;31738;50.188;8.524;2023-02-22T00:52:40;49.55;;;22.58;;
46006;SDS011;31738;50.188;8.524;2023-02-22T00:55:23;56.47;;;24.08;;
46006;SDS011;31738;50.188;8.524;2023-02-22T00:57:53;55.10;;;21.95;;
46006;SDS011;31738;50.188;8.524;2023-02-22T01:00:23;50.08;;;23.02;;
46006;SDS011;31738;50.188;8.524;2023-02-22T01:02:53;52.10;;;22.63;;
46006;SDS011;31738;50.188;8.524;2023-02-22T01:05:30;50.58;;;23.05;;
46006;SDS011;31738;50.188;8.524;2023-02-22T01:07:58;52.78;;;23.63;;
46006;SDS011;31738;50.188;8.524;2023-02-22T01:10:36;54.03;;;22.80;;
46006;SDS011;31738;50.188;8.524;2023-02-22T01:13:05;60.97;;;25.90;;
46006;SDS011;31738;50.188;8.524;2023-02-22T01:15:37;59.10;;;27.42;;
46006;SDS011;31738;50.188;8.524;2023-02-22T01:18:07;61.28;;;26.00;;
46006;SDS011;31738;50.188;8.524;2023-02-22T01:23:28;63.88;;;25.80;;
46006;SDS011;31738;50.188;8.524;2023-02-22T01:25:56;54.00;;;24.13;;
46006;SDS011;31738;50.188;8.524;2023-02-22T01:32:47;54.50;;;22.15;;
46006;SDS011;31738;50.188;8.524;2023-02-22T01:35:16;63.65;;;25.58;;
46006;SDS011;31738;50.188;8.524;2023-02-22T01:37:46;59.80;;;25.05;;
46006;SDS011;31738;50.188;8.524;2023-02-22T01:40:45;58.60;;;25.25;;
46006;SDS011;31738;50.188;8.524;2023-02-22T01:46:15;55.13;;;24.13;;
46006;SDS011;31738;50.188;8.524;2023-02-22T01:52:19;65.00;;;25.48;;
46006;SDS011;31738;50.188;8.524;2023-02-22T01:54:54;63.35;;;26.63;;
46006;SDS011;31738;50.188;8.524;2023-02-22T01:57:32;63.75;;;27.92;;
46006;SDS011;31738;50.188;8.524;2023-02-22T02:00:10;75.65;;;29.30;;
46006;SDS011;31738;50.188;8.524;2023-02-22T02:02:51;60.47;;;29.77;;
46006;SDS011;31738;50.188;8.524;2023-02-22T02:05:40;66.68;;;30.00;;
46006;SDS011;31738;50.188;8.524;2023-02-22T02:08:26;66.30;;;29.40;;
46006;SDS011;31738;50.188;8.524;2023-02-22T02:11:02;68.28;;;30.23;;
46006;SDS011;31738;50.188;8.524;2023-02-22T02:13:33;63.38;;;29.75;;
46006;SDS011;31738;50.188;8.524;2023-02-22T02:16:03;69.28;;;29.92;;
46006;SDS011;31738;50.188;8.524;2023-02-22T02:19:01;62.80;;;29.38;;
46006;SDS011;31738;50.188;8.524;2023-02-22T02:21:39;62.22;;;30.13;;
46006;SDS011;31738;50.188;8.524;2023-02-22T02:27:55;66.63;;;28.10;;
46006;SDS011;31738;50.188;8.524;2023-02-22T02:36:29;72.82;;;31.08;;
46006;SDS011;31738;50.188;8.524;2023-02-22T02:42:32;72.78;;;30.15;;
46006;SDS011;31738;50.188;8.524;2023-02-22T02:45:15;72.32;;;30.25;;
46006;SDS011;31738;50.188;8.524;2023-02-22T02:47:50;68.20;;;30.38;;
46006;SDS011;31738;50.188;8.524;2023-02-22T02:50:30;63.50;;;29.40;;
46006;SDS011;31738;50.188;8.524;2023-02-22T02:58:46;71.30;;;27.55;;
46006;SDS011;31738;50.188;8.524;2023-02-22T03:01:16;61.65;;;27.40;;
46006;SDS011;31738;50.188;8.524;2023-02-22T03:03:53;67.38;;;28.35;;
46006;SDS011;31738;50.188;8.524;2023-02-22T03:09:15;62.65;;;27.00;;
46006;SDS011;31738;50.188;8.524;2023-02-22T03:18:06;66.65;;;29.88;;
46006;SDS011;31738;50.188;8.524;2023-02-22T03:20:28;82.90;;;32.63;;
46006;SDS011;31738;50.188;8.524;2023-02-22T03:23:08;77.43;;;30.95;;
46006;SDS011;31738;50.188;8.524;2023-02-22T03:25:41;78.97;;;30.75;;
46006;SDS011;31738;50.188;8.524;2023-02-22T03:28:11;75.00;;;31.30;;
46006;SDS011;31738;50.188;8.524;2023-02-22T03:30:44;82.43;;;31.48;;
46006;SDS011;31738;50.188;8.524;2023-02-22T03:35:47;74.28;;;30.55;;
46006;SDS011;31738;50.188;8.524;2023-02-22T03:38:21;78.45;;;31.48;;
46006;SDS011;31738;50.188;8.524;2023-02-22T03:40:50;73.50;;;29.88;;
46006;SDS011;31738;50.188;8.524;2023-02-22T03:43:23;71.65;;;29.13;;
46006;SDS011;31738;50.188;8.524;2023-02-22T03:45:55;74.82;;;28.05;;
46006;SDS011;31738;50.188;8.524;2023-02-22T03:48:26;78.07;;;29.65;;
46006;SDS011;31738;50.188;8.524;2023-02-22T03:51:00;76.65;;;30.13;;
46006;SDS011;31738;50.188;8.524;2023-02-22T03:53:47;71.05;;;28.65;;
46006;SDS011;31738;50.188;8.524;2023-02-22T03:56:15;65.53;;;27.08;;
46006;SDS011;31738;50.188;8.524;2023-02-22T03:58:46;70.68;;;27.13;;
46006;SDS011;31738;50.188;8.524;2023-02-22T04:01:26;72.18;;;28.23;;
46006;SDS011;31738;50.188;8.524;2023-02-22T04:03:51;74.25;;;27.15;;
46006;SDS011;31738;50.188;8.524;2023-02-22T04:06:20;69.90;;;27.00;;
46006;SDS011;31738;50.188;8.524;2023-02-22T04:08:46;68.45;;;26.95;;
46006;SDS011;31738;50.188;8.524;2023-02-22T04:11:11;67.18;;;27.23;;
46006;SDS011;31738;50.188;8.524;2023-02-22T04:13:47;66.18;;;27.45;;
46006;SDS011;31738;50.188;8.524;2023-02-22T04:16:19;74.72;;;27.17;;
46006;SDS011;31738;50.188;8.524;2023-02-22T04:18:44;69.20;;;25.85;;
46006;SDS011;31738;50.188;8.524;2023-02-22T04:21:26;58.70;;;24.80;;
46006;SDS011;31738;50.188;8.524;2023-02-22T04:24:07;61.13;;;24.08;;
46006;SDS011;31738;50.188;8.524;2023-02-22T04:26:34;62.65;;;23.45;;
46006;SDS011;31738;50.188;8.524;2023-02-22T04:29:04;64.15;;;23.92;;
46006;SDS011;31738;50.188;8.524;2023-02-22T04:31:42;58.95;;;23.13;;
46006;SDS011;31738;50.188;8.524;2023-02-22T04:34:14;59.65;;;22.63;;
46006;SDS011;31738;50.188;8.524;2023-02-22T04:36:45;55.85;;;21.88;;
46006;SDS011;31738;50.188;8.524;2023-02-22T04:39:16;59.65;;;21.92;;
46006;SDS011;31738;50.188;8.524;2023-02-22T04:41:43;60.42;;;21.75;;
46006;SDS011;31738;50.188;8.524;2023-02-22T04:44:19;59.80;;;21.45;;
46006;SDS011;31738;50.188;8.524;2023-02-22T04:46:45;57.45;;;22.40;;
46006;SDS011;31738;50.188;8.524;2023-02-22T04:49:18;63.75;;;21.23;;
46006;SDS011;31738;50.188;8.524;2023-02-22T04:51:56;51.60;;;20.73;;
46006;SDS011;31738;50.188;8.524;2023-02-22T04:54:37;59.15;;;21.05;;
46006;SDS011;31738;50.188;8.524;2023-02-22T04:57:03;57.90;;;21.52;;
46006;SDS011;31738;50.188;8.524;2023-02-22T04:59:28;53.38;;;21.60;;
46006;SDS011;31738;50.188;8.524;2023-02-22T05:02:03;55.92;;;22.17;;
46006;SDS011;31738;50.188;8.524;2023-02-22T05:04:29;52.70;;;21.23;;
46006;SDS011;31738;50.188;8.524;2023-02-22T05:07:03;53.05;;;21.15;;
46006;SDS011;31738;50.188;8.524;2023-02-22T05:09:50;57.38;;;21.27;;
46006;SDS011;31738;50.188;8.524;2023-02-22T05:12:16;54.47;;;21.20;;
46006;SDS011;31738;50.188;8.524;2023-02-22T05:14:41;51.72;;;20.17;;
46006;SDS011;31738;50.188;8.524;2023-02-22T05:17:28;60.67;;;21.67;;
46006;SDS011;31738;50.188;8.524;2023-02-22T05:24:35;52.72;;;19.65;;
46006;SDS011;31738;50.188;8.524;2023-02-22T05:27:18;54.88;;;20.77;;
46006;SDS011;31738;50.188;8.524;2023-02-22T05:29:43;63.33;;;21.60;;
46006;SDS011;31738;50.188;8.524;2023-02-22T05:32:12;59.53;;;21.27;;
46006;SDS011;31738;50.188;8.524;2023-02-22T05:34:41;55.08;;;20.13;;
46006;SDS011;31738;50.188;8.524;2023-02-22T05:37:06;60.17;;;21.42;;
46006;SDS011;31738;50.188;8.524;2023-02-22T05:39:32;60.00;;;20.75;;
46006;SDS011;31738;50.188;8.524;2023-02-22T05:41:57;52.13;;;20.70;;
46006;SDS011;31738;50.188;8.524;2023-02-22T05:44:25;58.72;;;21.20;;
46006;SDS011;31738;50.188;8.524;2023-02-22T05:46:55;63.17;;;22.33;;
46006;SDS011;31738;50.188;8.524;2023-02-22T05:49:24;63.67;;;22.50;;
46006;SDS011;31738;50.188;8.524;2023-02-22T05:55:30;68.45;;;22.02;;
46006;SDS011;31738;50.188;8.524;2023-02-22T05:57:57;63.58;;;22.25;;
46006;SDS011;31738;50.188;8.524;2023-02-22T06:00:27;66.15;;;22.55;;
46006;SDS011;31738;50.188;8.524;2023-02-22T06:03:09;58.17;;;21.25;;
46006;SDS011;31738;50.188;8.524;2023-02-22T06:09:00;66.13;;;21.73;;
46006;SDS011;31738;50.188;8.524;2023-02-22T06:15:18;61.67;;;20.70;;
46006;SDS011;31738;50.188;8.524;2023-02-22T06:17:49;59.40;;;20.63;;
46006;SDS011;31738;50.188;8.524;2023-02-22T06:20:19;58.95;;;21.38;;
46006;SDS011;31738;50.188;8.524;2023-02-22T06:22:49;57.72;;;21.17;;
46006;SDS011;31738;50.188;8.524;2023-02-22T06:25:21;55.80;;;21.42;;
46006;SDS011;31738;50.188;8.524;2023-02-22T06:27:50;58.80;;;21.73;;
46006;SDS011;31738;50.188;8.524;2023-02-22T06:30:40;64.20;;;20.88;;
46006;SDS011;31738;50.188;8.524;2023-02-22T06:33:09;60.40;;;22.40;;
46006;SDS011;31738;50.188;8.524;2023-02-22T06:35:35;55.95;;;21.75;;
46006;SDS011;31738;50.188;8.524;2023-02-22T06:38:01;67.03;;;23.00;;
46006;SDS011;31738;50.188;8.524;2023-02-22T06:40:27;69.90;;;23.10;;
46006;SDS011;31738;50.188;8.524;2023-02-22T06:42:55;62.30;;;21.20;;
46006;SDS011;31738;50.188;8.524;2023-02-22T06:48:15;68.70;;;22.85;;
46006;SDS011;31738;50.188;8.524;2023-02-22T06:50:41;71.82;;;22.02;;
46006;SDS011;31738;50.188;8.524;2023-02-22T06:53:06;67.68;;;22.25;;
46006;SDS011;31738;50.188;8.524;2023-02-22T06:55:34;62.63;;;22.63;;
46006;SDS011;31738;50.188;8.524;2023-02-22T06:58:00;62.20;;;20.88;;
46006;SDS011;31738;50.188;8.524;2023-02-22T07:00:31;60.33;;;21.33;;
46006;SDS011;31738;50.188;8.524;2023-02-22T07:02:57;63.17;;;22.55;;
46006;SDS011;31738;50.188;8.524;2023-02-22T07:05:23;70.97;;;23.67;;
46006;SDS011;31738;50.188;8.524;2023-02-22T07:07:50;70.63;;;23.77;;
46006;SDS011;31738;50.188;8.524;2023-02-22T07:10:20;76.38;;;24.75;;
46006;SDS011;31738;50.188;8.524;2023-02-22T07:12:48;71.40;;;24.80;;
46006;SDS011;31738;50.188;8.524;2023-02-22T07:15:17;83.20;;;27.70;;
46006;SDS011;31738;50.188;8.524;2023-02-22T07:17:43;80.88;;;26.60;;
46006;SDS011;31738;50.188;8.524;2023-02-22T07:20:09;78.03;;;25.38;;
46006;SDS011;31738;50.188;8.524;2023-02-22T07:22:36;75.30;;;25.92;;
46006;SDS011;31738;50.188;8.524;2023-02-22T07:25:04;79.82;;;26.27;;
46006;SDS011;31738;50.188;8.524;2023-02-22T07:27:31;73.85;;;25.13;;
46006;SDS011;31738;50.188;8.524;2023-02-22T07:30:30;77.18;;;25.38;;
46006;SDS011;31738;50.188;8.524;2023-02-22T07:32:55;66.03;;;23.23;;
46006;SDS011;31738;50.188;8.524;2023-02-22T07:38:16;72.72;;;23.63;;
46006;SDS011;31738;50.188;8.524;2023-02-22T07:40:43;82.30;;;25.23;;
46006;SDS011;31738;50.188;8.524;2023-02-22T07:43:16;71.40;;;24.83;;
46006;SDS011;31738;50.188;8.524;2023-02-22T07:45:42;75.05;;;24.63;;
46006;SDS011;31738;50.188;8.524;2023-02-22T07:48:08;70.15;;;23.70;;
46006;SDS011;31738;50.188;8.524;2023-02-22T07:50:38;77.82;;;24.90;;
46006;SDS011;31738;50.188;8.524;2023-02-22T07:53:20;75.65;;;24.83;;
46006;SDS011;31738;50.188;8.524;2023-02-22T07:59:18;89.22;;;26.85;;
46006;SDS011;31738;50.188;8.524;2023-02-22T08:01:47;99.22;;;30.75;;
46006;SDS011;31738;50.188;8.524;2023-02-22T08:04:14;90.70;;;28.13;;
46006;SDS011;31738;50.188;8.524;2023-02-22T08:06:39;99.80;;;30.88;;
46006;SDS011;31738;50.188;8.524;2023-02-22T08:09:05;104.40;;;30.83;;
46006;SDS011;31738;50.188;8.524;2023-02-22T08:11:31;95.30;;;27.92;;
46006;SDS011;31738;50.188;8.524;2023-02-22T08:17:01;99.00;;;31.70;;
46006;SDS011;31738;50.188;8.524;2023-02-22T08:19:29;114.55;;;37.80;;
46006;SDS011;31738;50.188;8.524;2023-02-22T08:21:55;114.80;;;35.95;;
46006;SDS011;31738;50.188;8.524;2023-02-22T08:24:23;116.43;;;37.60;;
46006;SDS011;31738;50.188;8.524;2023-02-22T08:26:48;115.13;;;37.47;;
46006;SDS011;31738;50.188;8.524;2023-02-22T08:29:16;117.78;;;38.03;;
46006;SDS011;31738;50.188;8.524;2023-02-22T08:31:41;109.30;;;35.95;;
46006;SDS011;31738;50.188;8.524;2023-02-22T08:34:07;102.60;;;35.63;;
46006;SDS011;31738;50.188;8.524;2023-02-22T08:36:32;108.78;;;37.08;;
46006;SDS011;31738;50.188;8.524;2023-02-22T08:38:58;105.07;;;35.75;;
46006;SDS011;31738;50.188;8.524;2023-02-22T08:41:28;92.32;;;35.00;;
46006;SDS011;31738;50.188;8.524;2023-02-22T08:43:54;92.35;;;33.17;;
46006;SDS011;31738;50.188;8.524;2023-02-22T08:46:20;78.30;;;30.65;;
46006;SDS011;31738;50.188;8.524;2023-02-22T08:48:49;78.30;;;30.15;;
46006;SDS011;31738;50.188;8.524;2023-02-22T08:51:15;73.00;;;29.90;;
46006;SDS011;31738;50.188;8.524;2023-02-22T08:56:41;61.10;;;27.30;;
46006;SDS011;31738;50.188;8.524;2023-02-22T08:59:07;73.40;;;30.75;;
46006;SDS011;31738;50.188;8.524;2023-02-22T09:01:35;79.55;;;32.22;;
46006;SDS011;31738;50.188;8.524;2023-02-22T09:04:01;75.65;;;30.98;;
46006;SDS011;31738;50.188;8.524;2023-02-22T09:06:36;73.63;;;30.40;;
46006;SDS011;31738;50.188;8.524;2023-02-22T09:09:04;66.45;;;29.92;;
46006;SDS011;31738;50.188;8.524;2023-02-22T09:11:30;66.30;;;29.55;;
46006;SDS011;31738;50.188;8.524;2023-02-22T09:16:49;61.35;;;28.38;;
46006;SDS011;31738;50.188;8.524;2023-02-22T09:19:14;57.45;;;28.17;;
46006;SDS011;31738;50.188;8.524;2023-02-22T09:21:40;59.50;;;29.58;;
46006;SDS011;31738;50.188;8.524;2023-02-22T09:24:13;53.15;;;27.98;;
46006;SDS011;31738;50.188;8.524;2023-02-22T09:26:38;56.03;;;27.08;;
46006;SDS011;31738;50.188;8.524;2023-02-22T09:29:05;55.42;;;27.65;;
46006;SDS011;31738;50.188;8.524;2023-02-22T09:31:34;53.92;;;27.27;;
46006;SDS011;31738;50.188;8.524;2023-02-22T09:34:02;47.70;;;26.52;;
46006;SDS011;31738;50.188;8.524;2023-02-22T09:36:30;52.60;;;26.08;;
46006;SDS011;31738;50.188;8.524;2023-02-22T09:38:56;51.83;;;25.95;;
46006;SDS011;31738;50.188;8.524;2023-02-22T09:41:27;50.58;;;26.25;;
46006;SDS011;31738;50.188;8.524;2023-02-22T09:46:42;43.78;;;24.95;;
46006;SDS011;31738;50.188;8.524;2023-02-22T09:49:17;49.17;;;25.25;;
46006;SDS011;31738;50.188;8.524;2023-02-22T09:54:34;45.75;;;24.92;;
46006;SDS011;31738;50.188;8.524;2023-02-22T09:57:03;44.05;;;24.38;;
46006;SDS011;31738;50.188;8.524;2023-02-22T09:59:43;45.00;;;23.90;;
46006;SDS011;31738;50.188;8.524;2023-02-22T10:02:26;43.50;;;23.95;;
46006;SDS011;31738;50.188;8.524;2023-02-22T10:05:11;44.90;;;23.77;;
46006;SDS011;31738;50.188;8.524;2023-02-22T10:07:50;43.33;;;24.58;;
46006;SDS011;31738;50.188;8.524;2023-02-22T10:10:22;48.30;;;24.75;;
46006;SDS011;31738;50.188;8.524;2023-02-22T10:15:27;43.55;;;24.13;;
46006;SDS011;31738;50.188;8.524;2023-02-22T10:20:47;43.42;;;23.50;;
46006;SDS011;31738;50.188;8.524;2023-02-22T10:26:31;45.65;;;24.73;;
46006;SDS011;31738;50.188;8.524;2023-02-22T10:29:24;44.17;;;23.70;;
46006;SDS011;31738;50.188;8.524;2023-02-22T10:35:53;43.45;;;23.45;;
46006;SDS011;31738;50.188;8.524;2023-02-22T10:38:24;43.05;;;22.83;;
46006;SDS011;31738;50.188;8.524;2023-02-22T10:43:38;41.13;;;23.00;;
46006;SDS011;31738;50.188;8.524;2023-02-22T10:46:06;36.38;;;21.02;;
46006;SDS011;31738;50.188;8.524;2023-02-22T10:48:37;38.38;;;22.58;;
46006;SDS011;31738;50.188;8.524;2023-02-22T10:51:06;42.08;;;22.17;;
46006;SDS011;31738;50.188;8.524;2023-02-22T10:53:33;41.60;;;22.02;;
46006;SDS011;31738;50.188;8.524;2023-02-22T10:56:18;40.05;;;22.77;;
46006;SDS011;31738;50.188;8.524;2023-02-22T10:58:56;38.95;;;23.02;;
46006;SDS011;31738;50.188;8.524;2023-02-22T11:03:59;42.08;;;24.00;;
46006;SDS011;31738;50.188;8.524;2023-02-22T11:06:43;42.20;;;23.90;;
46006;SDS011;31738;50.188;8.524;2023-02-22T11:09:20;42.20;;;23.77;;
46006;SDS011;31738;50.188;8.524;2023-02-22T11:11:47;43.15;;;24.33;;
46006;SDS011;31738;50.188;8.524;2023-02-22T11:14:23;41.67;;;25.27;;
46006;SDS011;31738;50.188;8.524;2023-02-22T11:16:54;43.53;;;24.02;;
46006;SDS011;31738;50.188;8.524;2023-02-22T11:19:22;45.70;;;25.05;;
46006;SDS011;31738;50.188;8.524;2023-02-22T11:21:55;48.08;;;26.85;;
46006;SDS011;31738;50.188;8.524;2023-02-22T11:24:23;51.88;;;27.48;;
46006;SDS011;31738;50.188;8.524;2023-02-22T11:26:58;44.97;;;26.27;;
46006;SDS011;31738;50.188;8.524;2023-02-22T11:29:27;52.78;;;27.13;;
46006;SDS011;31738;50.188;8.524;2023-02-22T11:32:02;53.72;;;29.27;;
46006;SDS011;31738;50.188;8.524;2023-02-22T11:34:37;53.78;;;27.17;;
46006;SDS011;31738;50.188;8.524;2023-02-22T11:37:15;44.67;;;25.17;;
46006;SDS011;31738;50.188;8.524;2023-02-22T11:39:40;52.03;;;27.60;;
46006;SDS011;31738;50.188;8.524;2023-02-22T11:47:58;43.05;;;25.13;;
46006;SDS011;31738;50.188;8.524;2023-02-22T11:50:40;43.67;;;24.45;;
46006;SDS011;31738;50.188;8.524;2023-02-22T11:53:28;40.45;;;23.05;;
46006;SDS011;31738;50.188;8.524;2023-02-22T11:56:18;41.00;;;23.60;;
46006;SDS011;31738;50.188;8.524;2023-02-22T11:59:06;44.47;;;23.80;;
46006;SDS011;31738;50.188;8.524;2023-02-22T12:01:38;40.95;;;23.20;;
46006;SDS011;31738;50.188;8.524;2023-02-22T12:07:20;41.20;;;23.38;;
46006;SDS011;31738;50.188;8.524;2023-02-22T12:13:14;41.15;;;23.60;;
46006;SDS011;31738;50.188;8.524;2023-02-22T12:16:04;39.78;;;23.40;;
46006;SDS011;31738;50.188;8.524;2023-02-22T12:21:22;40.40;;;26.48;;
46006;SDS011;31738;50.188;8.524;2023-02-22T12:24:01;42.70;;;26.40;;
46006;SDS011;31738;50.188;8.524;2023-02-22T12:26:40;43.15;;;25.30;;
46006;SDS011;31738;50.188;8.524;2023-02-22T12:29:11;43.58;;;24.90;;
46006;SDS011;31738;50.188;8.524;2023-02-22T12:34:24;36.45;;;22.80;;
46006;SDS011;31738;50.188;8.524;2023-02-22T12:37:10;35.90;;;22.52;;
46006;SDS011;31738;50.188;8.524;2023-02-22T12:42:23;32.95;;;21.70;;
46006;SDS011;31738;50.188;8.524;2023-02-22T12:44:57;33.80;;;21.52;;
46006;SDS011;31738;50.188;8.524;2023-02-22T12:47:36;34.85;;;21.27;;
46006;SDS011;31738;50.188;8.524;2023-02-22T12:50:14;34.15;;;20.35;;
46006;SDS011;31738;50.188;8.524;2023-02-22T12:52:55;35.75;;;22.70;;
46006;SDS011;31738;50.188;8.524;2023-02-22T12:55:28;35.50;;;22.23;;
46006;SDS011;31738;50.188;8.524;2023-02-22T13:00:57;35.80;;;22.20;;
46006;SDS011;31738;50.188;8.524;2023-02-22T13:06:21;35.15;;;21.13;;
46006;SDS011;31738;50.188;8.524;2023-02-22T13:09:40;37.70;;;22.25;;
46006;SDS011;31738;50.188;8.524;2023-02-22T13:20:21;35.70;;;21.38;;
46006;SDS011;31738;50.188;8.524;2023-02-22T13:23:41;36.78;;;22.50;;
46006;SDS011;31738;50.188;8.524;2023-02-22T13:26:14;32.95;;;19.80;;
46006;SDS011;31738;50.188;8.524;2023-02-22T13:29:30;38.22;;;21.80;;
46006;SDS011;31738;50.188;8.524;2023-02-22T13:31:53;34.13;;;21.35;;
46006;SDS011;31738;50.188;8.524;2023-02-22T13:34:37;39.58;;;22.30;;
46006;SDS011;31738;50.188;8.524;2023-02-22T13:37:25;36.90;;;21.70;;
46006;SDS011;31738;50.188;8.524;2023-02-22T13:56:49;41.10;;;22.58;;
46006;SDS011;31738;50.188;8.524;2023-02-22T13:59:35;39.67;;;23.05;;
46006;SDS011;31738;50.188;8.524;2023-02-22T14:02:04;38.30;;;22.25;;
46006;SDS011;31738;50.188;8.524;2023-02-22T14:04:38;43.80;;;23.45;;
46006;SDS011;31738;50.188;8.524;2023-02-22T14:17:35;42.30;;;23.35;;
46006;SDS011;31738;50.188;8.524;2023-02-22T14:20:24;46.28;;;24.83;;
46006;SDS011;31738;50.188;8.524;2023-02-22T14:25:55;38.03;;;20.50;;
46006;SDS011;31738;50.188;8.524;2023-02-22T14:31:08;34.67;;;18.65;;
46006;SDS011;31738;50.188;8.524;2023-02-22T14:33:59;34.42;;;19.80;;
46006;SDS011;31738;50.188;8.524;2023-02-22T14:36:31;32.13;;;18.35;;
46006;SDS011;31738;50.188;8.524;2023-02-22T14:39:13;35.00;;;18.08;;
46006;SDS011;31738;50.188;8.524;2023-02-22T14:42:20;33.60;;;17.85;;
46006;SDS011;31738;50.188;8.524;2023-02-22T14:44:51;35.97;;;18.90;;
46006;SDS011;31738;50.188;8.524;2023-02-22T14:47:47;32.35;;;17.65;;
46006;SDS011;31738;50.188;8.524;2023-02-22T14:50:36;32.72;;;17.73;;
46006;SDS011;31738;50.188;8.524;2023-02-22T14:55:46;34.00;;;18.40;;
46006;SDS011;31738;50.188;8.524;2023-02-22T15:00:52;33.03;;;17.70;;
46006;SDS011;31738;50.188;8.524;2023-02-22T15:05:46;32.47;;;17.77;;
46006;SDS011;31738;50.188;8.524;2023-02-22T15:08:14;31.90;;;16.80;;
46006;SDS011;31738;50.188;8.524;2023-02-22T15:10:45;33.15;;;18.15;;
46006;SDS011;31738;50.188;8.524;2023-02-22T15:13:14;31.35;;;17.95;;
46006;SDS011;31738;50.188;8.524;2023-02-22T15:15:43;34.45;;;19.98;;
46006;SDS011;31738;50.188;8.524;2023-02-22T15:18:21;37.38;;;20.67;;
46006;SDS011;31738;50.188;8.524;2023-02-22T15:20:49;36.55;;;18.65;;
46006;SDS011;31738;50.188;8.524;2023-02-22T15:23:21;34.65;;;19.52;;
46006;SDS011;31738;50.188;8.524;2023-02-22T15:25:49;40.97;;;20.70;;
46006;SDS011;31738;50.188;8.524;2023-02-22T15:28:15;37.25;;;19.17;;
46006;SDS011;31738;50.188;8.524;2023-02-22T15:30:42;37.00;;;19.77;;
46006;SDS011;31738;50.188;8.524;2023-02-22T15:33:12;36.53;;;20.00;;
46006;SDS011;31738;50.188;8.524;2023-02-22T15:35:40;37.90;;;20.20;;
46006;SDS011;31738;50.188;8.524;2023-02-22T15:38:15;38.72;;;20.83;;
46006;SDS011;31738;50.188;8.524;2023-02-22T15:40:44;41.90;;;21.48;;
46006;SDS011;31738;50.188;8.524;2023-02-22T15:43:22;34.25;;;19.63;;
46006;SDS011;31738;50.188;8.524;2023-02-22T15:45:49;41.00;;;21.97;;
46006;SDS011;31738;50.188;8.524;2023-02-22T15:48:15;44.10;;;21.05;;
46006;SDS011;31738;50.188;8.524;2023-02-22T15:50:57;38.53;;;21.20;;
46006;SDS011;31738;50.188;8.524;2023-02-22T15:53:33;38.55;;;20.55;;
46006;SDS011;31738;50.188;8.524;2023-02-22T15:56:05;35.63;;;21.00;;
46006;SDS011;31738;50.188;8.524;2023-02-22T15:58:35;39.53;;;21.55;;
46006;SDS011;31738;50.188;8.524;2023-02-22T16:01:02;37.58;;;20.52;;
46006;SDS011;31738;50.188;8.524;2023-02-22T16:03:41;35.30;;;20.30;;
46006;SDS011;31738;50.188;8.524;2023-02-22T16:06:19;35.28;;;19.52;;
46006;SDS011;31738;50.188;8.524;2023-02-22T16:08:47;37.00;;;20.27;;
46006;SDS011;31738;50.188;8.524;2023-02-22T16:11:19;37.72;;;20.88;;
46006;SDS011;31738;50.188;8.524;2023-02-22T16:13:55;36.85;;;21.23;;
46006;SDS011;31738;50.188;8.524;2023-02-22T16:16:28;40.95;;;21.38;;
46006;SDS011;31738;50.188;8.524;2023-02-22T16:21:49;33.40;;;19.95;;
46006;SDS011;31738;50.188;8.524;2023-02-22T16:24:29;38.08;;;20.75;;
46006;SDS011;31738;50.188;8.524;2023-02-22T16:29:43;39.15;;;21.00;;
46006;SDS011;31738;50.188;8.524;2023-02-22T16:32:09;37.67;;;20.83;;
46006;SDS011;31738;50.188;8.524;2023-02-22T16:34:35;37.80;;;20.77;;
46006;SDS011;31738;50.188;8.524;2023-02-22T16:37:01;37.15;;;20.80;;
46006;SDS011;31738;50.188;8.524;2023-02-22T16:39:27;36.58;;;20.42;;
46006;SDS011;31738;50.188;8.524;2023-02-22T16:41:58;37.95;;;20.02;;
46006;SDS011;31738;50.188;8.524;2023-02-22T16:44:26;36.55;;;19.70;;
46006;SDS011;31738;50.188;8.524;2023-02-22T16:46:54;35.83;;;20.00;;
46006;SDS011;31738;50.188;8.524;2023-02-22T16:49:21;36.67;;;20.33;;
46006;SDS011;31738;50.188;8.524;2023-02-22T16:51:55;38.13;;;21.10;;
46006;SDS011;31738;50.188;8.524;2023-02-22T16:54:40;37.55;;;20.00;;
46006;SDS011;31738;50.188;8.524;2023-02-22T16:57:13;40.45;;;19.67;;
46006;SDS011;31738;50.188;8.524;2023-02-22T16:59:43;38.58;;;20.38;;
46006;SDS011;31738;50.188;8.524;2023-02-22T17:02:14;33.92;;;20.30;;
46006;SDS011;31738;50.188;8.524;2023-02-22T17:04:40;36.85;;;20.20;;
46006;SDS011;31738;50.188;8.524;2023-02-22T17:07:08;33.42;;;18.98;;
46006;SDS011;31738;50.188;8.524;2023-02-22T17:09:34;36.72;;;20.88;;
46006;SDS011;31738;50.188;8.524;2023-02-22T17:11:59;44.78;;;20.85;;
46006;SDS011;31738;50.188;8.524;2023-02-22T17:14:26;40.33;;;21.50;;
46006;SDS011;31738;50.188;8.524;2023-02-22T17:16:55;36.45;;;20.67;;
46006;SDS011;31738;50.188;8.524;2023-02-22T17:19:22;44.78;;;22.52;;
46006;SDS011;31738;50.188;8.524;2023-02-22T17:21:48;40.92;;;21.67;;
46006;SDS011;31738;50.188;8.524;2023-02-22T17:24:18;37.70;;;20.40;;
46006;SDS011;31738;50.188;8.524;2023-02-22T17:29:37;37.20;;;21.33;;
46006;SDS011;31738;50.188;8.524;2023-02-22T17:32:07;37.42;;;21.90;;
46006;SDS011;31738;50.188;8.524;2023-02-22T17:34:38;35.88;;;21.02;;
46006;SDS011;31738;50.188;8.524;2023-02-22T17:37:16;38.50;;;20.95;;
46006;SDS011;31738;50.188;8.524;2023-02-22T17:39:55;37.92;;;19.77;;
46006;SDS011;31738;50.188;8.524;2023-02-22T17:42:29;41.88;;;21.60;;
46006;SDS011;31738;50.188;8.524;2023-02-22T17:44:55;43.72;;;23.02;;
46006;SDS011;31738;50.188;8.524;2023-02-22T17:47:20;50.80;;;24.60;;
46006;SDS011;31738;50.188;8.524;2023-02-22T17:49:58;39.35;;;22.40;;
46006;SDS011;31738;50.188;8.524;2023-02-22T17:52:29;39.40;;;22.05;;
46006;SDS011;31738;50.188;8.524;2023-02-22T17:55:03;38.17;;;22.17;;
46006;SDS011;31738;50.188;8.524;2023-02-22T17:57:54;44.10;;;23.15;;
46006;SDS011;31738;50.188;8.524;2023-02-22T18:00:35;38.60;;;22.60;;
46006;SDS011;31738;50.188;8.524;2023-02-22T18:03:05;44.60;;;24.48;;